K&a Sp — 3FVZ3 — position and weather

sailwx.info

Track history (hours):
 
Tides and Currents Weather Stations Pressure Air Temp Water Temp Dewpoint Dewpoint Depression Visibility Wind Speed Wind Dir Waves Ship Positions

K&a Sp

Last reported at 2018-Apr-14 05:07 UTC. Time now 2018-Apr-26 00:13 UTC.
Position S 27°40' E 153°57'.
Warning: this ship's position is 11 days out of date.

Length 177 m; draft 9.3 m.

Type: Cargo ship. MMSI: 354085000.

Date/timePositionNaut miles runAvg speedWind from/ knotsBaromVisibWave heightAir tempDewpointWater temp
2018-Apr-14 05:07S 27°40' E 153°57'710.2
2018-Apr-14 04:24S 27°48' E 153°56'410.2
2018-Apr-14 03:59S 27°52' E 153°56'510.1
2018-Apr-14 03:30S 27°57' E 153°55'5 9.9
2018-Apr-14 03:00S 28°02' E 153°55'5 9.6
2018-Apr-14 02:30S 28°07' E 153°55'5 9.3
2018-Apr-14 02:00S 28°11' E 153°54'5 9.1
2018-Apr-14 01:30S 28°16' E 153°54'4 9.0
2018-Apr-14 01:00S 28°20' E 153°54'5 8.9
2018-Apr-14 00:30S 28°25' E 153°54'5 8.8
2018-Apr-13 23:57S 28°29' E 153°54'4 8.8
2018-Apr-13 23:30S 28°34' E 153°53'4 8.7
2018-Apr-13 22:59S 28°38' E 153°53'230 8.1
2018-Apr-12 18:48S 32°20' E 152°47'3 9.9
2018-Apr-12 18:30S 32°23' E 152°46'510.4
2018-Apr-12 18:00S 32°28' E 152°44'510.9
2018-Apr-12 17:30S 32°33' E 152°41'611.1
2018-Apr-12 17:00S 32°38' E 152°39'611.4
2018-Apr-12 16:30S 32°43' E 152°36'611.7
2018-Apr-12 16:00S 32°49' E 152°33'611.6
2018-Apr-12 15:30S 32°54' E 152°31'611.2
2018-Apr-12 15:00S 32°59' E 152°28'511.0
2018-Apr-12 14:30S 33°04' E 152°26'611.0
2018-Apr-12 14:00S 33°10' E 152°23'611.3
2018-Apr-12 13:30S 33°15' E 152°21'611.2
2018-Apr-12 13:00S 33°20' E 152°18'611.1
2018-Apr-12 12:30S 33°25' E 152°16'611.1
2018-Apr-12 12:00S 33°30' E 152°13'611.2
2018-Apr-12 11:30S 33°35' E 152°11'611.2
2018-Apr-12 11:00S 33°40' E 152°08'511.0
2018-Apr-12 10:30S 33°46' E 152°06'510.8
2018-Apr-12 10:00S 33°51' E 152°03'511.0
2018-Apr-12 09:30S 33°56' E 152°01'611.3
2018-Apr-12 09:00S 34°01' E 151°58'611.4
2018-Apr-12 08:30S 34°06' E 151°56'611.5
2018-Apr-12 08:00S 34°11' E 151°53'611.5
2018-Apr-12 07:30S 34°17' E 151°50'612.8
2018-Apr-12 07:00S 34°23' E 151°47'611.5
2018-Apr-12 06:30S 34°28' E 151°44'510.8
2018-Apr-12 06:00S 34°33' E 151°42'510.6
2018-Apr-12 05:30S 34°38' E 151°39'6410.7
2018-Apr-11 23:30S 35°37' E 151°10'611.4
2018-Apr-11 23:00S 35°42' E 151°07'611.6
2018-Apr-11 22:30S 35°48' E 151°04'611.8
2018-Apr-11 22:00S 35°53' E 151°02'612.2
2018-Apr-11 21:30S 35°59' E 150°59'712.0
2018-Apr-11 20:54S 36°06' E 150°56'511.9
2018-Apr-11 20:27S 36°10' E 150°53'512.1
2018-Apr-11 20:00S 36°15' E 150°50'612.4
2018-Apr-11 19:30S 36°21' E 150°48'612.2
2018-Apr-11 19:00S 36°27' E 150°45'611.9
2018-Apr-11 18:30S 36°32' E 150°42'611.7
2018-Apr-11 18:00S 36°38' E 150°39'611.5
2018-Apr-11 17:30S 36°43' E 150°36'4710.9
2018-Apr-11 13:11S 37°27' E 150°14'210.3
2018-Apr-11 12:59S 37°29' E 150°13'1410.5
2018-Apr-11 11:38S 37°40' E 150°02'311.0
2018-Apr-11 11:23S 37°42' E 150°00'511.1
2018-Apr-11 10:58S 37°46' E 149°56'611.7
2018-Apr-11 10:30S 37°49' E 149°51'611.7
2018-Apr-11 10:00S 37°52' E 149°45'611.7
2018-Apr-11 09:30S 37°56' E 149°39'611.6
2018-Apr-11 09:00S 37°59' E 149°33'611.6
2018-Apr-11 08:30S 38°03' E 149°27'611.5
2018-Apr-11 08:00S 38°06' E 149°21'611.5
2018-Apr-11 07:30S 38°10' E 149°16'612.8
2018-Apr-11 07:00S 38°14' E 149°09'612.0
2018-Apr-11 06:30S 38°17' E 149°03'611.8
2018-Apr-11 06:00S 38°21' E 148°57'611.7
2018-Apr-11 05:30S 38°25' E 148°51'611.7
2018-Apr-11 05:00S 38°28' E 148°46'611.2
2018-Apr-11 04:31S 38°32' E 148°40'711.9
2018-Apr-11 03:58S 38°36' E 148°33'612.2
2018-Apr-11 03:30S 38°39' E 148°27'612.1
2018-Apr-11 02:59S 38°43' E 148°21'611.9
2018-Apr-11 02:30S 38°46' E 148°15'611.9
2018-Apr-11 02:00S 38°48' E 148°08'612.0
2018-Apr-11 01:30S 38°50' E 148°01'612.2
2018-Apr-11 01:00S 38°52' E 147°53'612.2
2018-Apr-11 00:30S 38°54' E 147°46'612.2
2018-Apr-11 00:00S 38°56' E 147°39'812.3
2018-Apr-10 23:21S 38°59' E 147°29'612.4
2018-Apr-10 22:50S 39°01' E 147°21'411.8
2018-Apr-10 22:30S 39°02' E 147°16'611.9
2018-Apr-10 22:00S 39°04' E 147°09'612.0
2018-Apr-10 21:30S 39°06' E 147°02'611.9
2018-Apr-10 21:00S 39°09' E 146°55'612.1
2018-Apr-10 20:30S 39°11' E 146°48'611.9
2018-Apr-10 20:00S 39°14' E 146°41'612.1
2018-Apr-10 19:30S 39°16' E 146°34'611.9
2018-Apr-10 19:00S 39°17' E 146°26'712.0
2018-Apr-10 18:24S 39°17' E 146°17'512.0
2018-Apr-10 17:57S 39°16' E 146°10'512.1
2018-Apr-10 17:30S 39°15' E 146°03'612.4
2018-Apr-10 17:00S 39°15' E 145°55'1312.5
2018-Apr-10 15:58S 39°13' E 145°38'612.4
2018-Apr-10 15:30S 39°12' E 145°31'3312.2
2018-Apr-10 12:48S 39°08' E 144°49'411.8
2018-Apr-10 12:27S 39°07' E 144°43'38311.5
2018-Apr-09 03:01S 35°34' E 138°03'012.6
2018-Apr-09 03:00S 35°34' E 138°03'2312.6
2018-Apr-09 01:11S 35°12' E 138°12'212.8
2018-Apr-09 01:00S 35°10' E 138°13'  
2018-Apr-06 13:43S 34°50' E 138°31'13 0.5
2018-Apr-05 11:50S 34°51' E 138°15'0 0.0
2018-Apr-05 11:29S 34°51' E 138°15'0 0.1
2018-Apr-05 10:23S 34°51' E 138°15'0 0.0
2018-Apr-05 08:02S 34°51' E 138°15'0 0.0
2018-Apr-05 07:59S 34°51' E 138°15'0 0.0
2018-Apr-04 11:10S 34°51' E 138°15'0 0.6
2018-Apr-04 11:00S 34°51' E 138°15'  
Track history (hours):
 
Tides and Currents Weather Stations Pressure Air Temp Water Temp Dewpoint Dewpoint Depression Visibility Wind Speed Wind Dir Waves Ship Positions

K&a Sp

Last reported at 2018-Apr-14 05:07 UTC. Time now 2018-Apr-26 00:13 UTC.
Position S 27°40' E 153°57'.
Warning: this ship's position is 11 days out of date.

Length 177 m; draft 9.3 m.

Type: Cargo ship. MMSI: 354085000.

Date/timePositionNaut miles runAvg speedWind from/ knotsBaromVisibWave heightAir tempDewpointWater temp
2018-Apr-14 05:07S 27°40' E 153°57'710.2
2018-Apr-14 04:24S 27°48' E 153°56'410.2
2018-Apr-14 03:59S 27°52' E 153°56'510.1
2018-Apr-14 03:30S 27°57' E 153°55'5 9.9
2018-Apr-14 03:00S 28°02' E 153°55'5 9.6
2018-Apr-14 02:30S 28°07' E 153°55'5 9.3
2018-Apr-14 02:00S 28°11' E 153°54'5 9.1
2018-Apr-14 01:30S 28°16' E 153°54'4 9.0
2018-Apr-14 01:00S 28°20' E 153°54'5 8.9
2018-Apr-14 00:30S 28°25' E 153°54'5 8.8
2018-Apr-13 23:57S 28°29' E 153°54'4 8.8
2018-Apr-13 23:30S 28°34' E 153°53'4 8.7
2018-Apr-13 22:59S 28°38' E 153°53'230 8.1
2018-Apr-12 18:48S 32°20' E 152°47'3 9.9
2018-Apr-12 18:30S 32°23' E 152°46'510.4
2018-Apr-12 18:00S 32°28' E 152°44'510.9
2018-Apr-12 17:30S 32°33' E 152°41'611.1
2018-Apr-12 17:00S 32°38' E 152°39'611.4
2018-Apr-12 16:30S 32°43' E 152°36'611.7
2018-Apr-12 16:00S 32°49' E 152°33'611.6
2018-Apr-12 15:30S 32°54' E 152°31'611.2
2018-Apr-12 15:00S 32°59' E 152°28'511.0
2018-Apr-12 14:30S 33°04' E 152°26'611.0
2018-Apr-12 14:00S 33°10' E 152°23'611.3
2018-Apr-12 13:30S 33°15' E 152°21'611.2
2018-Apr-12 13:00S 33°20' E 152°18'611.1
2018-Apr-12 12:30S 33°25' E 152°16'611.1
2018-Apr-12 12:00S 33°30' E 152°13'611.2
2018-Apr-12 11:30S 33°35' E 152°11'611.2
2018-Apr-12 11:00S 33°40' E 152°08'511.0
2018-Apr-12 10:30S 33°46' E 152°06'510.8
2018-Apr-12 10:00S 33°51' E 152°03'511.0
2018-Apr-12 09:30S 33°56' E 152°01'611.3
2018-Apr-12 09:00S 34°01' E 151°58'611.4
2018-Apr-12 08:30S 34°06' E 151°56'611.5
2018-Apr-12 08:00S 34°11' E 151°53'611.5
2018-Apr-12 07:30S 34°17' E 151°50'612.8
2018-Apr-12 07:00S 34°23' E 151°47'611.5
2018-Apr-12 06:30S 34°28' E 151°44'510.8
2018-Apr-12 06:00S 34°33' E 151°42'510.6
2018-Apr-12 05:30S 34°38' E 151°39'6410.7
2018-Apr-11 23:30S 35°37' E 151°10'611.4
2018-Apr-11 23:00S 35°42' E 151°07'611.6
2018-Apr-11 22:30S 35°48' E 151°04'611.8
2018-Apr-11 22:00S 35°53' E 151°02'612.2
2018-Apr-11 21:30S 35°59' E 150°59'712.0
2018-Apr-11 20:54S 36°06' E 150°56'511.9
2018-Apr-11 20:27S 36°10' E 150°53'512.1
2018-Apr-11 20:00S 36°15' E 150°50'612.4
2018-Apr-11 19:30S 36°21' E 150°48'612.2
2018-Apr-11 19:00S 36°27' E 150°45'611.9
2018-Apr-11 18:30S 36°32' E 150°42'611.7
2018-Apr-11 18:00S 36°38' E 150°39'611.5
2018-Apr-11 17:30S 36°43' E 150°36'4710.9
2018-Apr-11 13:11S 37°27' E 150°14'210.3
2018-Apr-11 12:59S 37°29' E 150°13'1410.5
2018-Apr-11 11:38S 37°40' E 150°02'311.0
2018-Apr-11 11:23S 37°42' E 150°00'511.1
2018-Apr-11 10:58S 37°46' E 149°56'611.7
2018-Apr-11 10:30S 37°49' E 149°51'611.7
2018-Apr-11 10:00S 37°52' E 149°45'611.7
2018-Apr-11 09:30S 37°56' E 149°39'611.6
2018-Apr-11 09:00S 37°59' E 149°33'611.6
2018-Apr-11 08:30S 38°03' E 149°27'611.5
2018-Apr-11 08:00S 38°06' E 149°21'611.5
2018-Apr-11 07:30S 38°10' E 149°16'612.8
2018-Apr-11 07:00S 38°14' E 149°09'612.0
2018-Apr-11 06:30S 38°17' E 149°03'611.8
2018-Apr-11 06:00S 38°21' E 148°57'611.7
2018-Apr-11 05:30S 38°25' E 148°51'611.7
2018-Apr-11 05:00S 38°28' E 148°46'611.2
2018-Apr-11 04:31S 38°32' E 148°40'711.9
2018-Apr-11 03:58S 38°36' E 148°33'612.2
2018-Apr-11 03:30S 38°39' E 148°27'612.1
2018-Apr-11 02:59S 38°43' E 148°21'611.9
2018-Apr-11 02:30S 38°46' E 148°15'611.9
2018-Apr-11 02:00S 38°48' E 148°08'612.0
2018-Apr-11 01:30S 38°50' E 148°01'612.2
2018-Apr-11 01:00S 38°52' E 147°53'612.2
2018-Apr-11 00:30S 38°54' E 147°46'612.2
2018-Apr-11 00:00S 38°56' E 147°39'812.3
2018-Apr-10 23:21S 38°59' E 147°29'612.4
2018-Apr-10 22:50S 39°01' E 147°21'411.8
2018-Apr-10 22:30S 39°02' E 147°16'611.9
2018-Apr-10 22:00S 39°04' E 147°09'612.0
2018-Apr-10 21:30S 39°06' E 147°02'611.9
2018-Apr-10 21:00S 39°09' E 146°55'612.1
2018-Apr-10 20:30S 39°11' E 146°48'611.9
2018-Apr-10 20:00S 39°14' E 146°41'612.1
2018-Apr-10 19:30S 39°16' E 146°34'611.9
2018-Apr-10 19:00S 39°17' E 146°26'712.0
2018-Apr-10 18:24S 39°17' E 146°17'512.0
2018-Apr-10 17:57S 39°16' E 146°10'512.1
2018-Apr-10 17:30S 39°15' E 146°03'612.4
2018-Apr-10 17:00S 39°15' E 145°55'1312.5
2018-Apr-10 15:58S 39°13' E 145°38'612.4
2018-Apr-10 15:30S 39°12' E 145°31'3312.2
2018-Apr-10 12:48S 39°08' E 144°49'411.8
2018-Apr-10 12:27S 39°07' E 144°43'38311.5
2018-Apr-09 03:01S 35°34' E 138°03'012.6
2018-Apr-09 03:00S 35°34' E 138°03'2312.6
2018-Apr-09 01:11S 35°12' E 138°12'212.8
2018-Apr-09 01:00S 35°10' E 138°13'  
2018-Apr-06 13:43S 34°50' E 138°31'13 0.5
2018-Apr-05 11:50S 34°51' E 138°15'0 0.0
2018-Apr-05 11:29S 34°51' E 138°15'0 0.1
2018-Apr-05 10:23S 34°51' E 138°15'0 0.0
2018-Apr-05 08:02S 34°51' E 138°15'0 0.0
2018-Apr-05 07:59S 34°51' E 138°15'0 0.0
2018-Apr-04 11:10S 34°51' E 138°15'0 0.6
2018-Apr-04 11:00S 34°51' E 138°15'  

Dump ship's entire track history